TimePST,TemperatureF,Dew PointF,Humidity,Sea Level PressureIn,VisibilityMPH,Wind Direction,Wind SpeedMPH,Gust SpeedMPH,PrecipitationIn,Events,Conditions,WindDirDegrees,DateUTC
12:53 AM,41.0,30.9,67,30.03,10.0,Calm,Calm,-,N/A,,Clear,0,2013-01-10 08:53:00
1:53 AM,37.0,32.0,82,30.05,10.0,South,3.5,-,N/A,,Clear,180,2013-01-10 09:53:00
2:53 AM,35.1,30.9,85,30.06,10.0,SW,3.5,-,N/A,,Clear,220,2013-01-10 10:53:00
3:53 AM,33.1,30.0,89,30.06,10.0,East,3.5,-,N/A,,Clear,100,2013-01-10 11:53:00
4:53 AM,34.0,30.0,85,30.06,10.0,SE,3.5,-,N/A,,Clear,130,2013-01-10 12:53:00
5:53 AM,32.0,30.0,92,30.06,10.0,ESE,3.5,-,N/A,,Clear,120,2013-01-10 13:53:00
6:53 AM,30.0,28.0,92,30.08,10.0,Calm,Calm,-,N/A,,Clear,0,2013-01-10 14:53:00
7:53 AM,33.1,30.9,92,30.09,10.0,Calm,Calm,-,N/A,,Clear,0,2013-01-10 15:53:00
8:53 AM,37.0,33.1,86,30.11,10.0,Calm,Calm,-,N/A,,Partly Cloudy,0,2013-01-10 16:53:00
9:53 AM,41.0,35.1,79,30.12,10.0,Calm,Calm,-,N/A,,Clear,0,2013-01-10 17:53:00
10:53 AM,46.0,36.0,68,30.12,10.0,Calm,Calm,-,N/A,,Clear,0,2013-01-10 18:53:00
11:53 AM,46.9,37.0,68,30.10,10.0,NNW,4.6,-,N/A,,Clear,340,2013-01-10 19:53:00
12:53 PM,48.9,37.0,64,30.08,10.0,NNW,6.9,-,N/A,,Clear,340,2013-01-10 20:53:00
1:53 PM,50.0,34.0,54,30.09,10.0,NNW,10.4,-,N/A,,Clear,330,2013-01-10 21:53:00
2:53 PM,50.0,33.1,52,30.09,10.0,NW,11.5,-,N/A,,Clear,310,2013-01-10 22:53:00
3:53 PM,48.9,30.9,50,30.09,10.0,NW,8.1,-,N/A,,Clear,320,2013-01-10 23:53:00
4:53 PM,44.1,30.0,58,30.09,10.0,NNW,5.8,-,N/A,,Clear,330,2013-01-11 00:53:00
5:53 PM,44.1,30.0,58,30.10,10.0,NNW,4.6,-,N/A,,Clear,330,2013-01-11 01:53:00
6:53 PM,39.0,30.9,73,30.12,10.0,SSW,3.5,-,N/A,,Clear,210,2013-01-11 02:53:00
7:53 PM,39.0,30.9,73,30.12,10.0,WSW,5.8,-,N/A,,Clear,240,2013-01-11 03:53:00
8:53 PM,39.9,32.0,73,30.13,10.0,Calm,Calm,-,N/A,,Clear,0,2013-01-11 04:53:00
9:53 PM,37.9,30.0,73,30.14,10.0,WSW,3.5,-,N/A,,Clear,240,2013-01-11 05:53:00
10:53 PM,34.0,30.0,85,30.15,10.0,Calm,Calm,-,N/A,,Clear,0,2013-01-11 06:53:00
11:53 PM,36.0,30.9,82,30.16,10.0,ESE,3.5,-,N/A,,Clear,110,2013-01-11 07:53:00